메인 페이지
METAR-TAF:

METAR-TAF

공항 :

브리즈번, 오스트레일리아

브리즈번 공항

위도: 27-23S, 경도: 153-06E, 고도: 4m

현재 날씨관측

예보는 29분 전, 15:30시(UTC)에 발표되었습니다.
3kt
온도 25°C
습도 69%
기압 1009 hPa
시정 10km 이상
1500m 미만 상공 구름 및 적란운 없음

METAR: YBBN 191530Z 17003KT CAVOK 25/19 Q1009 NOSIG

시각: 01:59 (15:59 UTC)

예보

예보는 4 시간 34분 전, 11:25시(UTC)에 발표되었습니다.
예보 대상 시간: 19일 12시부터 20일 18시까지 (UTC)
남동7kt
시정 10km 이상
고도 2500ft 상공 구름 보통
19일 1500시부터 (UTC)
7kt
시정 10km 이상
고도 2000ft 상공 구름 보통
고도 7000ft 상공 구름 보통
약한소나기
20일 0000시부터 (UTC)
남동13kt
시정 10km 이상
고도 3000ft 상공 구름 보통
약한소나기
20일 0300시부터 (UTC)
남동16kt
시정 10km 이상
고도 3000ft 상공 구름 보통
20일 0900시부터 (UTC)
남남동12kt
시정 10km 이상
고도 2500ft 상공 구름 많음
약한소나기
20일 1200시부터 (UTC)
남남동15kt
시정: 4000m
고도 2000ft 상공 흐림
고도 1200ft 상공 구름 많음
약한소나기, 소나기
일시적
20일 12시부터 20일 18시까지 (UTC)
남동18kt
시정: 3000m
고도 1200ft 상공 구름 많음
소나기

TAF: YBBN 191125Z 1912/2018 13007KT 9999 SCT025 FM191500 19007KT 9999 -SHRA SCT020 SCT070 FM200000 14013KT 9999 -SHRA SCT030 FM200300 13016KT 9999 SCT030 FM200900 15012KT 9999 -SHRA BKN025 FM201200 18012KT 9999 -SHRA OVC020 INTER 1921/2006 15015KT 4000 SHRA BKN012 TEMPO 2012/2018 14018KT 3000 SHRA BKN012

4,000개 이상의 공항 관측 자료 및 예보 (METAR 및 TAF 보고).

지도상에서 검색 가능한 기상관측소가 노란 점과 빨간 점으로 표시되어 있습니다.

기상관측소 명을 보려면 표시 위로 마우스를 이동하세요.

날씨 관측과 예보를 보려면 클릭하세요.

지도 변경 : 확대하려면 엑스 표시가 있는 녹색 버튼, 축소하려면 빼기 표시가 있는 녹색 버튼, 다음 페이지의 지도를 보려면 녹색 화살표를 클릭하세요.


METAR-TAF: